Time;durP1;ratioP1;P1;durP2;ratioP2;P2;SDS_P1;SDS_P2;PMS_P1;PMS_P2;Temp;Humidity;BMP_temperature;BMP_pressure;BME280_temperature;BME280_humidity;BME280_pressure;Samples;Min_cycle;Max_cycle;Signal;HPM_P1;HPM_P2
2023/10/19 00:01:11;;;;;;;11.98;2.45;;;14.40;99.90;;;;;;5006794;28;20042;-76
2023/10/19 00:03:38;;;;;;;13.73;1.83;;;14.40;99.90;;;;;;5007522;28;20074;-76
2023/10/19 00:06:05;;;;;;;9.35;2.38;;;14.40;99.90;;;;;;4989248;28;20042;-77
2023/10/19 00:08:41;;;;;;;9.18;2.63;;;14.30;99.90;;;;;;5000465;28;20042;-77
2023/10/19 00:11:09;;;;;;;13.07;2.00;;;14.30;99.90;;;;;;5003550;28;20049;-77
2023/10/19 00:13:37;;;;;;;10.45;1.40;;;14.30;99.90;;;;;;5006446;28;20042;-77
2023/10/19 00:16:21;;;;;;;13.73;3.05;;;14.20;99.90;;;;;;5006970;28;20060;-76
2023/10/19 00:18:49;;;;;;;10.85;1.83;;;14.20;99.90;;;;;;4996705;28;20042;-77
2023/10/19 00:21:25;;;;;;;14.90;2.95;;;14.10;99.90;;;;;;5006479;28;20050;-77
2023/10/19 00:23:56;;;;;;;9.38;2.38;;;14.10;99.90;;;;;;5006284;28;20464;-77
2023/10/19 00:26:25;;;;;;;15.18;2.33;;;14.10;99.90;;;;;;4989137;28;20049;-77
2023/10/19 00:29:18;;;;;;;12.90;1.80;;;14.10;99.90;;;;;;5005592;28;20515;-78
2023/10/19 00:31:41;;;;;;;20.52;3.45;;;14.10;99.90;;;;;;5000858;28;20460;-77
2023/10/19 00:34:08;;;;;;;13.57;2.05;;;14.20;99.90;;;;;;5004346;28;20089;-76
2023/10/19 00:36:38;;;;;;;11.30;2.17;;;14.20;99.90;;;;;;5009628;28;20054;-77
2023/10/19 00:39:14;;;;;;;12.05;1.70;;;14.20;99.90;;;;;;5009921;28;20045;-77
2023/10/19 00:41:42;;;;;;;15.18;1.77;;;14.30;99.90;;;;;;5009321;28;20069;-77
2023/10/19 00:44:15;;;;;;;18.02;3.30;;;14.30;99.90;;;;;;5009701;28;20069;-77
2023/10/19 00:49:15;;;;;;;17.08;2.47;;;14.30;99.90;;;;;;5009514;28;20100;-77
2023/10/19 00:54:33;;;;;;;14.38;4.05;;;14.30;99.90;;;;;;5010007;28;20425;-77
2023/10/19 00:57:06;;;;;;;11.30;1.60;;;14.30;99.90;;;;;;5001401;28;20053;-76
2023/10/19 00:59:38;;;;;;;13.93;2.20;;;14.30;99.90;;;;;;4992938;28;20060;-77
2023/10/19 01:02:16;;;;;;;10.82;2.08;;;14.20;99.90;;;;;;4984161;28;20081;-78
2023/10/19 01:04:45;;;;;;;16.45;2.67;;;14.20;99.90;;;;;;5009800;28;20493;-79
2023/10/19 01:07:15;;;;;;;12.80;1.80;;;14.20;99.90;;;;;;5009257;28;20497;-78
2023/10/19 01:09:44;;;;;;;14.60;1.77;;;14.20;99.90;;;;;;4993030;28;20388;-78
2023/10/19 01:12:28;;;;;;;14.10;3.03;;;14.30;99.90;;;;;;5008999;28;20564;-77
2023/10/19 01:15:17;;;;;;;11.65;2.63;;;14.30;99.90;;;;;;5009612;28;20042;-77
2023/10/19 01:17:51;;;;;;;18.10;2.22;;;14.30;99.90;;;;;;5000277;28;20135;-78
2023/10/19 01:20:22;;;;;;;8.65;1.90;;;14.40;99.90;;;;;;5009491;28;20124;-78
2023/10/19 01:22:53;;;;;;;9.60;1.60;;;14.40;99.90;;;;;;5009216;28;20052;-78
2023/10/19 01:25:34;;;;;;;11.73;1.60;;;14.50;99.90;;;;;;5009158;28;20077;-78
2023/10/19 01:28:08;;;;;;;8.95;1.77;;;14.50;99.90;;;;;;5008140;28;20445;-78
2023/10/19 01:30:38;;;;;;;9.38;1.65;;;14.50;99.90;;;;;;5008870;28;20149;-77
2023/10/19 01:33:12;;;;;;;10.75;1.60;;;14.60;99.90;;;;;;5007911;28;20414;-77
2023/10/19 01:38:25;;;;;;;8.50;1.17;;;14.60;99.90;;;;;;5007852;28;20147;-77
2023/10/19 01:40:54;;;;;;;9.20;1.58;;;14.60;99.90;;;;;;4658600;28;10000354;-78
2023/10/19 01:43:22;;;;;;;6.63;0.93;;;14.60;99.90;;;;;;5009778;28;20049;-77
2023/10/19 01:45:54;;;;;;;6.05;0.93;;;14.60;99.90;;;;;;5016149;28;20080;-78
2023/10/19 01:48:23;;;;;;;9.98;1.17;;;14.60;99.90;;;;;;5017160;28;20042;-77
2023/10/19 01:50:50;;;;;;;7.35;1.23;;;14.70;99.90;;;;;;5015487;28;20276;-77
2023/10/19 01:53:17;;;;;;;4.45;1.02;;;14.70;99.90;;;;;;5012088;28;20050;-77
2023/10/19 01:55:44;;;;;;;7.03;1.08;;;14.70;99.90;;;;;;5009902;28;20049;-77
2023/10/19 01:58:11;;;;;;;6.15;1.20;;;14.80;99.90;;;;;;4991844;28;20042;-77
2023/10/19 02:00:39;;;;;;;8.73;1.30;;;14.80;99.90;;;;;;4991041;28;20100;-77
2023/10/19 02:03:09;;;;;;;5.18;1.00;;;14.90;99.90;;;;;;5008402;28;20104;-78
2023/10/19 02:05:43;;;;;;;4.10;0.90;;;14.90;99.90;;;;;;5008458;28;20315;-77
2023/10/19 02:08:10;;;;;;;5.28;0.90;;;15.00;99.90;;;;;;5008205;28;20049;-78
2023/10/19 02:10:40;;;;;;;5.60;1.30;;;15.00;99.90;;;;;;5008064;28;20053;-77
2023/10/19 02:13:08;;;;;;;9.52;1.23;;;15.10;99.90;;;;;;5008724;28;20050;-78
2023/10/19 02:15:35;;;;;;;8.25;1.23;;;15.10;99.90;;;;;;5006720;28;20041;-76
2023/10/19 02:18:03;;;;;;;8.77;2.05;;;15.10;99.90;;;;;;5008457;28;20053;-76
2023/10/19 02:20:31;;;;;;;11.52;1.88;;;15.20;99.90;;;;;;5007679;28;20460;-76
2023/10/19 02:23:09;;;;;;;8.40;1.50;;;15.20;99.90;;;;;;5011436;28;20050;-76
2023/10/19 02:25:36;;;;;;;10.68;2.10;;;15.10;99.90;;;;;;5011467;28;20049;-77
2023/10/19 02:28:07;;;;;;;10.32;1.45;;;15.10;99.90;;;;;;5008573;28;20508;-76
2023/10/19 02:30:37;;;;;;;7.32;1.15;;;15.10;99.90;;;;;;5006289;28;20116;-75
2023/10/19 02:33:05;;;;;;;8.82;1.67;;;15.10;99.90;;;;;;5007195;28;20056;-76
2023/10/19 02:35:35;;;;;;;6.55;1.30;;;15.10;99.90;;;;;;5008016;28;20050;-76
2023/10/19 02:38:02;;;;;;;5.95;1.90;;;15.10;99.90;;;;;;5007541;28;20050;-75
2023/10/19 02:40:31;;;;;;;7.35;1.17;;;15.10;99.90;;;;;;5007769;28;20068;-75
2023/10/19 02:43:03;;;;;;;4.57;1.10;;;15.10;99.90;;;;;;5007672;28;20064;-75
2023/10/19 02:45:30;;;;;;;6.30;1.02;;;15.10;99.90;;;;;;4994003;28;20042;-74
2023/10/19 02:47:58;;;;;;;8.75;2.35;;;15.20;99.90;;;;;;5006094;28;20081;-75
2023/10/19 02:50:26;;;;;;;5.40;1.10;;;15.20;99.90;;;;;;5007215;28;20052;-75
2023/10/19 02:52:53;;;;;;;8.05;1.50;;;15.30;99.90;;;;;;5004366;28;20050;-74
2023/10/19 02:55:23;;;;;;;9.88;1.50;;;15.30;99.90;;;;;;5000114;28;20604;-75
2023/10/19 02:57:50;;;;;;;12.13;1.55;;;15.30;99.90;;;;;;5007461;28;20072;-77
2023/10/19 03:00:20;;;;;;;11.95;2.08;;;15.40;99.90;;;;;;5007087;28;20054;-75
2023/10/19 03:02:48;;;;;;;9.65;1.45;;;15.40;99.90;;;;;;5007737;28;20042;-75
2023/10/19 03:05:17;;;;;;;16.98;2.78;;;15.50;99.90;;;;;;5005997;28;20137;-74
2023/10/19 03:07:44;;;;;;;12.57;1.67;;;15.50;99.90;;;;;;4989188;28;20455;-74
2023/10/19 03:12:57;;;;;;;11.18;1.27;;;15.50;99.90;;;;;;5007121;28;20087;-75
2023/10/19 03:15:24;;;;;;;12.43;1.92;;;15.50;99.90;;;;;;5007526;28;20108;-75
2023/10/19 03:17:50;;;;;;;8.75;2.03;;;15.60;99.90;;;;;;5006897;28;20099;-73
2023/10/19 03:20:23;;;;;;;9.88;1.83;;;15.60;99.90;;;;;;5007290;28;20052;-75
2023/10/19 03:22:50;;;;;;;21.20;2.58;;;15.60;99.90;;;;;;5006703;28;20531;-75
2023/10/19 03:28:26;;;;;;;10.85;1.83;;;15.60;99.90;;;;;;4978503;28;20078;-75
2023/10/19 03:30:55;;;;;;;16.70;2.33;;;15.70;99.90;;;;;;4976137;28;20054;-75
2023/10/19 03:33:26;;;;;;;14.70;2.35;;;15.70;99.90;;;;;;4992242;28;20050;-75
2023/10/19 03:35:54;;;;;;;21.85;3.25;;;15.70;99.90;;;;;;5007185;28;20694;-75
2023/10/19 03:38:22;;;;;;;12.73;2.22;;;15.70;99.90;;;;;;5006757;28;20053;-75
2023/10/19 03:40:58;;;;;;;29.70;4.70;;;15.70;99.90;;;;;;5006895;28;20081;-75
2023/10/19 03:43:27;;;;;;;17.25;2.47;;;15.70;99.90;;;;;;4999948;28;20045;-74
2023/10/19 03:45:54;;;;;;;21.70;3.05;;;15.70;99.90;;;;;;5006738;28;20045;-75
2023/10/19 03:48:26;;;;;;;24.33;3.00;;;15.70;99.90;;;;;;5007109;28;20065;-75
2023/10/19 03:50:56;;;;;;;22.08;3.38;;;15.70;99.90;;;;;;5006652;28;20133;-75
2023/10/19 03:53:23;;;;;;;15.98;2.72;;;15.70;99.90;;;;;;5006666;28;20054;-75
2023/10/19 03:55:50;;;;;;;16.02;3.13;;;15.70;99.90;;;;;;5006786;28;20049;-74
2023/10/19 03:58:20;;;;;;;15.27;2.28;;;15.70;99.90;;;;;;5007079;28;20050;-75
2023/10/19 04:00:49;;;;;;;21.83;3.60;;;15.80;99.90;;;;;;5006258;28;20057;-74
2023/10/19 04:03:17;;;;;;;16.27;2.97;;;15.80;99.90;;;;;;5006953;28;20054;-75
2023/10/19 04:05:48;;;;;;;12.95;1.98;;;15.80;99.90;;;;;;4990270;28;20058;-74
2023/10/19 04:08:19;;;;;;;18.13;3.00;;;15.80;99.90;;;;;;5010521;28;20501;-75
2023/10/19 04:11:07;;;;;;;17.00;2.90;;;15.80;99.90;;;;;;5011061;28;20554;-75
2023/10/19 04:13:34;;;;;;;17.23;3.63;;;15.80;99.90;;;;;;5002086;28;20081;-75
2023/10/19 04:16:01;;;;;;;20.92;4.10;;;15.80;99.90;;;;;;5010637;28;20053;-74
2023/10/19 04:18:28;;;;;;;25.15;4.00;;;15.80;99.90;;;;;;5010943;28;20056;-76
2023/10/19 04:20:55;;;;;;;17.77;3.42;;;15.80;99.90;;;;;;5010552;28;20046;-74
2023/10/19 04:23:26;;;;;;;10.25;2.17;;;15.70;99.90;;;;;;5009855;28;20053;-75
2023/10/19 04:25:58;;;;;;;20.70;2.92;;;15.70;99.90;;;;;;5010614;28;20487;-75
2023/10/19 04:28:38;;;;;;;13.02;3.30;;;15.70;99.90;;;;;;5010071;28;20054;-75
2023/10/19 04:31:06;;;;;;;15.40;2.15;;;15.70;99.90;;;;;;5010018;28;20065;-75
2023/10/19 04:33:36;;;;;;;11.55;2.75;;;15.60;99.90;;;;;;5008065;28;20192;-74
2023/10/19 04:36:03;;;;;;;15.23;2.45;;;15.60;99.90;;;;;;5009736;28;20471;-74
2023/10/19 04:38:33;;;;;;;17.75;3.03;;;15.60;99.90;;;;;;5009809;28;20449;-74
2023/10/19 04:41:07;;;;;;;22.00;2.83;;;15.60;99.90;;;;;;4992155;28;20046;-75
2023/10/19 04:43:37;;;;;;;;;;;15.60;99.90;;;;;;5010467;28;20050;-75
2023/10/19 04:46:13;;;;;;;14.50;1.98;;;15.60;99.90;;;;;;5009702;28;19921;-75
2023/10/19 04:48:40;;;;;;;18.25;2.97;;;15.60;99.90;;;;;;5009997;28;20581;-75
2023/10/19 04:51:09;;;;;;;16.88;2.17;;;15.60;99.90;;;;;;5013868;28;20041;-75
2023/10/19 04:53:36;;;;;;;17.27;2.50;;;15.60;99.90;;;;;;5012387;28;20484;-74
2023/10/19 04:56:04;;;;;;;12.50;2.10;;;15.60;99.90;;;;;;5008167;28;20057;-75
2023/10/19 04:58:31;;;;;;;20.75;2.80;;;15.60;99.90;;;;;;5009178;28;20493;-75
2023/10/19 05:00:58;;;;;;;12.55;2.95;;;15.60;99.90;;;;;;5009335;28;20057;-75
2023/10/19 05:03:25;;;;;;;12.05;2.63;;;15.60;99.90;;;;;;5009803;28;20054;-74
2023/10/19 05:05:52;;;;;;;11.18;3.35;;;15.60;99.90;;;;;;5009773;28;20053;-74
2023/10/19 05:08:19;;;;;;;21.98;3.10;;;15.60;99.90;;;;;;5006580;28;20045;-75
2023/10/19 05:10:46;;;;;;;18.73;4.00;;;15.70;99.90;;;;;;5009861;28;20521;-75
2023/10/19 05:13:13;;;;;;;19.95;2.88;;;15.70;99.90;;;;;;5010163;28;20473;-74
2023/10/19 05:15:42;;;;;;;29.52;4.05;;;15.70;99.90;;;;;;5009076;28;20049;-75
2023/10/19 05:18:09;;;;;;;22.80;3.92;;;15.70;99.90;;;;;;5009665;28;20057;-75
2023/10/19 05:20:40;;;;;;;21.92;3.15;;;15.70;99.90;;;;;;5009074;28;20121;-75
2023/10/19 05:23:08;;;;;;;26.58;3.40;;;15.70;99.90;;;;;;5007031;28;20046;-75
2023/10/19 05:25:38;;;;;;;16.52;3.05;;;15.70;99.90;;;;;;5006912;28;20562;-75
2023/10/19 05:28:05;;;;;;;26.55;3.47;;;15.70;99.90;;;;;;5007711;28;20603;-75
2023/10/19 05:30:35;;;;;;;21.05;4.07;;;15.70;99.90;;;;;;5008624;28;20042;-74
2023/10/19 05:33:02;;;;;;;24.10;4.35;;;15.70;99.90;;;;;;5009227;28;20050;-74
2023/10/19 05:35:30;;;;;;;22.40;3.70;;;15.70;99.90;;;;;;5008615;28;20049;-74
2023/10/19 05:37:57;;;;;;;21.70;3.50;;;15.70;99.90;;;;;;5006975;28;20132;-75
2023/10/19 05:40:29;;;;;;;22.05;3.70;;;15.70;99.90;;;;;;4990974;28;20085;-74
2023/10/19 05:42:57;;;;;;;15.77;2.92;;;15.70;99.90;;;;;;5008631;28;20493;-74
2023/10/19 05:45:24;;;;;;;21.90;5.78;;;15.70;99.90;;;;;;5008880;28;20364;-74
2023/10/19 05:47:51;;;;;;;19.73;3.75;;;15.70;99.90;;;;;;4990910;28;20050;-74
2023/10/19 05:50:19;;;;;;;18.23;3.33;;;15.80;99.90;;;;;;5009348;28;20050;-74
2023/10/19 05:52:47;;;;;;;18.30;3.47;;;15.80;99.90;;;;;;5007853;28;20045;-73
2023/10/19 05:55:14;;;;;;;21.05;3.63;;;15.80;99.90;;;;;;5007650;28;20046;-73
2023/10/19 05:57:41;;;;;;;12.13;2.30;;;15.80;99.90;;;;;;5008159;28;20489;-73
2023/10/19 06:00:15;;;;;;;14.60;2.75;;;15.80;99.90;;;;;;5008863;28;20056;-72
2023/10/19 06:02:45;;;;;;;20.73;2.85;;;15.80;99.90;;;;;;5008743;28;20045;-73
2023/10/19 06:05:15;;;;;;;24.85;3.63;;;15.80;99.90;;;;;;4988103;28;20054;-73
2023/10/19 06:07:46;;;;;;;24.75;3.28;;;15.80;99.90;;;;;;5008143;28;20041;-70
2023/10/19 06:10:15;;;;;;;17.88;3.33;;;15.80;99.90;;;;;;5007388;28;20054;-73
2023/10/19 06:12:43;;;;;;;14.88;2.92;;;15.70;99.90;;;;;;5008311;28;20145;-74
2023/10/19 06:15:14;;;;;;;16.75;2.80;;;15.70;99.90;;;;;;5008506;28;20253;-73
2023/10/19 06:17:41;;;;;;;18.33;2.90;;;15.70;99.90;;;;;;5008150;28;20049;-74
2023/10/19 06:20:19;;;;;;;15.55;3.03;;;15.70;99.90;;;;;;5007781;28;20049;-72
2023/10/19 06:22:50;;;;;;;11.55;2.60;;;15.70;99.90;;;;;;5006823;28;20042;-72
2023/10/19 06:25:18;;;;;;;22.00;4.32;;;15.70;99.90;;;;;;5008818;28;20058;-72
2023/10/19 06:27:46;;;;;;;20.95;3.08;;;15.70;99.90;;;;;;5008047;28;20137;-72
2023/10/19 06:30:17;;;;;;;19.50;3.58;;;15.70;99.90;;;;;;4991298;28;20258;-72
2023/10/19 06:32:48;;;;;;;21.23;3.42;;;15.70;99.90;;;;;;4991096;28;20057;-72
2023/10/19 06:35:15;;;;;;;17.88;3.78;;;15.80;99.90;;;;;;5008342;28;20054;-73
2023/10/19 06:37:42;;;;;;;27.13;4.93;;;15.80;99.90;;;;;;5005556;28;20049;-73
2023/10/19 06:40:13;;;;;;;19.58;3.53;;;15.80;99.90;;;;;;4998878;28;20524;-73
2023/10/19 06:42:40;;;;;;;16.27;2.90;;;15.90;99.90;;;;;;5006181;28;20050;-70
2023/10/19 06:45:08;;;;;;;16.98;4.45;;;15.90;99.90;;;;;;5007042;28;20050;-70
2023/10/19 06:47:37;;;;;;;17.48;3.22;;;15.90;99.90;;;;;;5003091;28;20046;-71
2023/10/19 06:50:07;;;;;;;32.00;3.95;;;15.90;99.90;;;;;;5005592;28;20042;-70
2023/10/19 06:52:35;;;;;;;14.27;2.92;;;15.90;99.90;;;;;;5006973;28;20434;-70
2023/10/19 06:55:13;;;;;;;25.23;4.68;;;15.90;99.90;;;;;;5007584;28;20073;-70
2023/10/19 06:57:43;;;;;;;24.83;3.25;;;15.90;99.90;;;;;;5005648;28;20050;-69
2023/10/19 07:00:14;;;;;;;17.67;2.97;;;15.90;99.90;;;;;;4989930;28;20132;-70
2023/10/19 07:02:42;;;;;;;23.23;3.72;;;15.90;99.90;;;;;;4999022;28;20132;-69
2023/10/19 07:05:13;;;;;;;22.80;3.50;;;16.00;99.90;;;;;;5007144;28;20100;-70
2023/10/19 07:07:41;;;;;;;20.35;3.50;;;16.00;99.90;;;;;;5006541;28;20045;-70
2023/10/19 07:10:09;;;;;;;31.05;3.50;;;16.00;99.90;;;;;;5002913;28;20065;-69
2023/10/19 07:12:36;;;;;;;26.73;3.67;;;16.10;99.90;;;;;;5006700;28;20131;-72
2023/10/19 07:15:13;;;;;;;21.45;3.90;;;16.00;99.90;;;;;;5006419;28;20485;-70
2023/10/19 07:17:43;;;;;;;19.17;4.20;;;16.00;99.90;;;;;;5007245;28;20576;-72
2023/10/19 07:20:25;;;;;;;23.88;3.83;;;16.00;99.90;;;;;;5009629;28;20038;-71
2023/10/19 07:22:54;;;;;;;16.90;3.50;;;16.00;99.90;;;;;;4992835;28;20072;-71
2023/10/19 07:25:22;;;;;;;14.18;3.05;;;16.00;99.90;;;;;;5006565;28;20057;-71
2023/10/19 07:27:52;;;;;;;9.18;2.33;;;16.00;99.90;;;;;;5007369;28;20354;-72
2023/10/19 07:30:26;;;;;;;23.30;5.70;;;16.00;99.90;;;;;;5006916;28;20092;-71
2023/10/19 07:33:04;;;;;;;24.60;4.38;;;16.00;99.90;;;;;;5006446;28;20046;-72
2023/10/19 07:35:34;;;;;;;12.98;3.22;;;16.00;99.90;;;;;;5007316;28;20046;-71
2023/10/19 07:38:04;;;;;;;13.07;2.72;;;16.00;99.90;;;;;;5006158;28;20081;-72
2023/10/19 07:40:31;;;;;;;14.38;2.42;;;16.00;99.90;;;;;;5009647;28;20046;-70
2023/10/19 07:42:59;;;;;;;16.95;2.78;;;16.00;99.90;;;;;;5011045;28;20068;-72
2023/10/19 07:45:26;;;;;;;13.20;2.97;;;16.00;99.90;;;;;;5011125;28;20080;-71
2023/10/19 07:47:53;;;;;;;14.05;2.35;;;16.10;99.90;;;;;;5010499;28;20065;-72
2023/10/19 07:50:22;;;;;;;18.00;2.55;;;16.10;99.90;;;;;;5010549;28;20056;-71
2023/10/19 07:52:53;;;;;;;14.73;3.58;;;16.10;99.90;;;;;;5009991;28;20139;-71
2023/10/19 07:55:24;;;;;;;9.90;2.33;;;16.10;99.90;;;;;;5007818;28;20572;-67
2023/10/19 07:57:51;;;;;;;10.82;2.28;;;16.10;99.90;;;;;;5010326;28;20077;-67
2023/10/19 08:00:19;;;;;;;13.70;3.58;;;16.10;99.90;;;;;;5010217;28;20439;-68
2023/10/19 08:02:46;;;;;;;11.70;2.05;;;16.10;99.90;;;;;;5009613;28;20157;-67
2023/10/19 08:05:13;;;;;;;10.23;2.08;;;16.10;99.90;;;;;;5010413;28;20544;-67
2023/10/19 08:07:42;;;;;;;7.93;1.63;;;16.10;99.90;;;;;;5010002;28;20053;-67
2023/10/19 08:10:10;;;;;;;13.93;2.42;;;16.20;99.90;;;;;;5009204;28;20072;-67
2023/10/19 08:12:38;;;;;;;6.07;1.50;;;16.20;99.90;;;;;;5009425;28;20053;-67
2023/10/19 08:15:06;;;;;;;19.48;2.15;;;16.20;99.90;;;;;;5010339;28;20046;-68
2023/10/19 08:17:33;;;;;;;14.35;2.42;;;16.20;99.90;;;;;;5009945;28;20076;-67
2023/10/19 08:20:03;;;;;;;12.10;2.58;;;16.30;99.90;;;;;;5008030;28;20459;-67
2023/10/19 08:22:30;;;;;;;14.88;3.08;;;16.30;99.90;;;;;;4990410;28;20702;-67
2023/10/19 08:24:57;;;;;;;15.23;2.72;;;16.20;99.90;;;;;;5005547;28;20054;-67
2023/10/19 08:27:25;;;;;;;16.83;2.35;;;16.20;99.90;;;;;;5009144;28;20130;-67
2023/10/19 08:29:51;;;;;;;11.52;2.70;;;16.30;99.90;;;;;;5008743;28;20041;-67
2023/10/19 08:32:18;;;;;;;17.00;2.55;;;16.30;99.90;;;;;;5008384;28;20794;-67
2023/10/19 08:34:45;;;;;;;15.27;2.67;;;16.40;99.90;;;;;;4992599;28;20076;-67
2023/10/19 08:37:13;;;;;;;19.83;3.65;;;16.40;99.90;;;;;;5009965;28;20073;-67
2023/10/19 08:39:40;;;;;;;19.30;3.47;;;16.40;99.90;;;;;;5010009;28;20050;-66
2023/10/19 08:42:07;;;;;;;22.17;5.30;;;16.50;99.90;;;;;;4984877;28;20574;-68
2023/10/19 08:44:35;;;;;;;21.58;2.97;;;16.60;99.90;;;;;;5009521;28;20495;-68
2023/10/19 08:47:05;;;;;;;21.13;4.03;;;16.60;99.90;;;;;;5009971;28;20049;-68
2023/10/19 08:49:32;;;;;;;14.07;2.50;;;16.60;99.90;;;;;;5009218;28;20080;-68
2023/10/19 08:51:59;;;;;;;21.35;3.13;;;16.70;99.90;;;;;;4990688;28;20053;-67
2023/10/19 08:54:26;;;;;;;16.25;3.20;;;16.60;99.90;;;;;;5009399;28;20096;-67
2023/10/19 08:56:53;;;;;;;13.68;3.05;;;16.70;99.90;;;;;;5009385;28;20057;-67
2023/10/19 08:59:19;;;;;;;23.10;4.47;;;16.80;99.90;;;;;;5009339;28;20053;-67
2023/10/19 09:01:46;;;;;;;12.70;2.88;;;16.80;99.90;;;;;;5009360;28;20145;-67
2023/10/19 09:04:14;;;;;;;22.77;4.03;;;16.70;99.90;;;;;;5008737;28;20090;-67
2023/10/19 09:06:45;;;;;;;14.63;3.40;;;16.70;99.90;;;;;;5009607;28;20501;-67
2023/10/19 09:09:25;;;;;;;17.10;4.13;;;16.80;99.90;;;;;;5007458;28;20545;-67
2023/10/19 09:11:54;;;;;;;14.82;2.78;;;16.90;99.90;;;;;;4989896;28;20057;-67
2023/10/19 09:14:36;;;;;;;17.85;3.00;;;16.90;99.90;;;;;;5009419;28;20222;-67
2023/10/19 09:17:06;;;;;;;16.10;4.38;;;16.90;99.90;;;;;;5007848;28;20069;-67
2023/10/19 09:19:42;;;;;;;23.10;3.22;;;16.90;99.90;;;;;;5007878;28;20061;-67
2023/10/19 09:22:18;;;;;;;14.18;2.53;;;16.90;99.90;;;;;;5008801;28;20398;-67
2023/10/19 09:24:49;;;;;;;19.48;3.42;;;16.90;99.90;;;;;;4989753;28;20089;-67
2023/10/19 09:27:17;;;;;;;15.15;2.78;;;16.90;99.90;;;;;;5009312;28;20049;-67
2023/10/19 09:29:45;;;;;;;13.15;2.55;;;16.90;99.90;;;;;;5008567;28;20412;-67
2023/10/19 09:32:13;;;;;;;11.82;2.65;;;16.90;99.90;;;;;;5009398;28;20045;-67
2023/10/19 09:34:44;;;;;;;14.50;2.83;;;16.90;99.90;;;;;;5008799;28;20461;-67
2023/10/19 09:37:14;;;;;;;14.23;2.70;;;16.90;99.90;;;;;;5008647;28;20060;-67
2023/10/19 09:39:43;;;;;;;15.52;2.53;;;16.90;99.90;;;;;;5003948;28;20046;-67
2023/10/19 09:42:10;;;;;;;11.65;3.30;;;16.90;99.90;;;;;;4975093;28;20054;-65
2023/10/19 09:44:42;;;;;;;18.00;3.65;;;16.90;99.90;;;;;;5007686;28;20449;-67
2023/10/19 09:47:17;;;;;;;14.23;3.05;;;16.90;99.90;;;;;;5007748;28;20099;-67
2023/10/19 09:49:44;;;;;;;11.43;2.53;;;16.90;99.90;;;;;;4984424;28;20062;-67
2023/10/19 09:52:11;;;;;;;8.68;1.88;;;16.90;99.90;;;;;;5007304;28;20594;-67
2023/10/19 09:54:57;;;;;;;14.10;2.95;;;16.80;99.90;;;;;;4991278;28;20103;-67
2023/10/19 09:57:51;;;;;;;10.70;2.63;;;16.80;99.90;;;;;;4993129;28;20421;-68
2023/10/19 10:00:23;;;;;;;20.63;4.03;;;16.90;99.90;;;;;;4999910;28;20360;-67
2023/10/19 10:02:51;;;;;;;17.27;3.53;;;17.00;99.90;;;;;;4989799;28;20583;-66
2023/10/19 10:05:42;;;;;;;12.95;3.03;;;17.00;99.90;;;;;;5007272;28;20292;-67
2023/10/19 10:08:22;;;;;;;12.90;3.33;;;17.10;99.90;;;;;;5006747;28;20042;-67
2023/10/19 10:10:50;;;;;;;18.88;3.53;;;17.20;99.90;;;;;;5006584;28;20053;-68
2023/10/19 10:13:26;;;;;;;12.02;2.60;;;17.20;99.90;;;;;;5006175;28;20417;-68
2023/10/19 10:15:54;;;;;;;16.63;3.05;;;17.30;99.90;;;;;;5005201;28;20054;-67
2023/10/19 10:18:24;;;;;;;16.70;3.47;;;17.30;99.90;;;;;;5006984;28;20116;-68
2023/10/19 10:21:08;;;;;;;12.27;2.72;;;17.30;99.90;;;;;;5007783;28;20041;-65
2023/10/19 10:23:43;;;;;;;11.77;2.30;;;17.30;99.90;;;;;;5005847;28;20069;-68
2023/10/19 10:26:14;;;;;;;15.02;3.05;;;17.20;99.90;;;;;;5002302;28;20127;-68
2023/10/19 10:28:41;;;;;;;12.82;3.28;;;17.30;99.90;;;;;;5011203;28;20053;-68
2023/10/19 10:31:18;;;;;;;13.50;2.72;;;17.30;99.90;;;;;;4999456;28;20053;-68
2023/10/19 10:33:54;;;;;;;20.77;3.53;;;17.40;99.90;;;;;;5006070;28;20046;-70
2023/10/19 10:36:21;;;;;;;10.27;2.30;;;17.40;99.90;;;;;;4992247;28;20105;-69
2023/10/19 10:38:50;;;;;;;13.70;2.50;;;17.50;99.90;;;;;;5005885;28;20053;-67
2023/10/19 10:41:28;;;;;;;16.40;2.78;;;17.50;99.90;;;;;;5006435;28;20049;-67
2023/10/19 10:43:56;;;;;;;13.45;2.63;;;17.50;99.90;;;;;;5006112;28;20539;-68
2023/10/19 10:46:24;;;;;;;11.45;2.42;;;17.50;99.90;;;;;;5003963;28;20104;-69
2023/10/19 10:48:54;;;;;;;22.73;3.53;;;17.50;99.90;;;;;;4988347;28;20416;-68
2023/10/19 10:51:22;;;;;;;10.02;2.40;;;17.50;99.90;;;;;;5006825;28;20513;-68
2023/10/19 10:53:51;;;;;;;15.32;3.17;;;17.50;99.90;;;;;;5013295;28;20069;-68
2023/10/19 10:56:18;;;;;;;17.13;3.15;;;17.50;99.90;;;;;;4989138;28;20050;-66
2023/10/19 10:58:45;;;;;;;21.67;3.13;;;17.30;99.90;;;;;;5006979;28;20132;-68
2023/10/19 11:01:13;;;;;;;16.92;3.22;;;17.20;99.90;;;;;;5006206;28;20658;-68
2023/10/19 11:03:42;;;;;;;11.90;2.70;;;17.20;99.90;;;;;;5005892;28;20870;-68
2023/10/19 11:06:10;;;;;;;15.13;2.45;;;17.10;99.90;;;;;;5004418;28;20053;-67
2023/10/19 11:08:37;;;;;;;13.68;3.15;;;17.10;99.90;;;;;;5006443;28;20038;-69
2023/10/19 11:11:10;;;;;;;16.75;3.22;;;17.10;99.90;;;;;;5007414;28;20085;-67
2023/10/19 11:13:38;;;;;;;14.20;3.10;;;17.10;99.90;;;;;;4649840;28;10000512;-68
2023/10/19 11:16:09;;;;;;;18.50;3.17;;;17.10;99.90;;;;;;4995099;28;20049;-67
2023/10/19 11:18:40;;;;;;;10.57;3.00;;;17.10;99.90;;;;;;5003006;28;20046;-68
2023/10/19 11:21:09;;;;;;;14.20;2.05;;;17.20;99.90;;;;;;5003498;28;20755;-68
2023/10/19 11:23:46;;;;;;;15.20;2.78;;;17.30;99.90;;;;;;5003863;28;20058;-67
2023/10/19 11:26:18;;;;;;;16.67;2.75;;;17.40;99.90;;;;;;5003117;28;20161;-66
2023/10/19 11:28:51;;;;;;;17.33;2.72;;;17.50;99.90;;;;;;5004204;28;20045;-66
2023/10/19 11:31:18;;;;;;;13.93;2.57;;;17.50;99.90;;;;;;5004181;28;20141;-66
2023/10/19 11:33:48;;;;;;;10.85;2.25;;;17.60;99.90;;;;;;5003852;28;20857;-66
2023/10/19 11:36:18;;;;;;;18.67;4.40;;;17.80;99.90;;;;;;5000704;28;20152;-66
2023/10/19 11:38:46;;;;;;;12.63;2.85;;;17.80;99.90;;;;;;5003962;28;20054;-66
2023/10/19 11:41:14;;;;;;;11.48;2.38;;;17.80;99.90;;;;;;5004478;28;20054;-66
2023/10/19 11:43:42;;;;;;;12.07;2.97;;;17.80;99.90;;;;;;5004665;28;20064;-67
2023/10/19 11:46:09;;;;;;;18.52;3.88;;;17.80;99.90;;;;;;5002117;28;20072;-66
2023/10/19 11:48:36;;;;;;;15.60;2.50;;;17.80;99.90;;;;;;4999682;28;20042;-66
2023/10/19 11:51:03;;;;;;;14.05;3.00;;;17.80;99.90;;;;;;5002968;28;20515;-65
2023/10/19 11:53:34;;;;;;;20.10;4.00;;;17.80;99.90;;;;;;5004267;28;20046;-65
2023/10/19 11:56:03;;;;;;;17.17;3.75;;;17.80;99.90;;;;;;5004345;28;20046;-65
2023/10/19 11:58:32;;;;;;;15.48;2.50;;;17.80;99.90;;;;;;5004173;28;20062;-66
2023/10/19 12:00:59;;;;;;;14.73;2.78;;;17.90;99.90;;;;;;5003595;28;20045;-66
2023/10/19 12:03:27;;;;;;;12.57;2.85;;;17.90;99.90;;;;;;5003904;28;20050;-66
2023/10/19 12:05:54;;;;;;;10.05;2.15;;;18.00;99.90;;;;;;5003947;28;20054;-65
2023/10/19 12:08:23;;;;;;;19.60;3.63;;;18.10;99.90;;;;;;5004166;28;20505;-66
2023/10/19 12:10:50;;;;;;;17.38;3.63;;;18.10;99.90;;;;;;5003162;28;20221;-66
2023/10/19 12:13:17;;;;;;;17.40;3.22;;;18.10;99.90;;;;;;5002667;28;20045;-66
2023/10/19 12:15:54;;;;;;;18.70;4.05;;;18.20;99.90;;;;;;5000635;28;20086;-66
2023/10/19 12:18:21;;;;;;;17.77;3.08;;;18.20;99.90;;;;;;4998240;28;20773;-66
2023/10/19 12:20:48;;;;;;;15.45;3.80;;;18.20;99.90;;;;;;5001833;28;20463;-67
2023/10/19 12:23:15;;;;;;;14.90;3.35;;;18.20;99.90;;;;;;5002830;28;20062;-67
2023/10/19 12:25:42;;;;;;;17.85;3.70;;;18.20;99.90;;;;;;5001453;28;20046;-66
2023/10/19 12:28:15;;;;;;;;;;;18.20;99.90;;;;;;5007064;28;20054;-66
2023/10/19 12:30:42;;;;;;;12.70;3.22;;;18.30;99.90;;;;;;5006395;28;19948;-66
2023/10/19 12:33:12;;;;;;;11.20;3.50;;;18.40;99.90;;;;;;5003929;28;20042;-66
2023/10/19 12:35:51;;;;;;;17.75;3.70;;;18.50;99.90;;;;;;5008438;28;20046;-67
2023/10/19 12:38:20;;;;;;;15.23;3.28;;;18.50;99.90;;;;;;5005770;28;20116;-66
2023/10/19 12:40:47;;;;;;;19.63;3.97;;;18.60;99.90;;;;;;5007151;28;20121;-66
2023/10/19 12:43:15;;;;;;;12.10;3.60;;;18.70;99.90;;;;;;5007419;28;20049;-66
2023/10/19 12:45:43;;;;;;;17.90;3.85;;;18.80;99.90;;;;;;4989772;28;20045;-66
2023/10/19 12:48:11;;;;;;;18.88;3.63;;;18.90;99.90;;;;;;5006932;28;20057;-67
2023/10/19 12:50:38;;;;;;;15.00;3.22;;;18.90;99.90;;;;;;5007060;28;20050;-67
2023/10/19 12:53:06;;;;;;;15.63;2.92;;;18.80;99.90;;;;;;4987807;28;20161;-62
2023/10/19 12:55:34;;;;;;;27.08;3.20;;;18.70;99.90;;;;;;5003029;28;20052;-66
2023/10/19 12:58:07;;;;;;;13.15;3.00;;;18.60;99.90;;;;;;5005942;28;20056;-66
2023/10/19 13:01:16;;;;;;;8.02;2.00;;;18.60;99.90;;;;;;5005686;28;20141;-63
2023/10/19 13:03:31;;;;;;;17.23;3.30;;;18.60;99.90;;;;;;5003125;28;20046;-63
2023/10/19 13:05:58;;;;;;;16.27;3.58;;;18.70;99.90;;;;;;5004587;28;20053;-64